createdAt,value
2023-09-06T00:00:27.730Z,25.85
2023-09-06T00:02:55.998Z,25.40
2023-09-06T00:05:25.354Z,26.64
2023-09-06T00:07:53.221Z,26.05
2023-09-06T00:10:21.038Z,26.34
2023-09-06T00:12:48.966Z,26.57
2023-09-06T00:15:16.876Z,26.54
2023-09-06T00:17:45.959Z,26.18
2023-09-06T00:20:21.999Z,26.45
2023-09-06T00:22:57.784Z,25.53
2023-09-06T00:25:26.589Z,24.47
2023-09-06T00:27:54.521Z,24.72
2023-09-06T00:30:22.458Z,25.58
2023-09-06T00:32:54.176Z,24.11
2023-09-06T00:35:23.036Z,25.73
2023-09-06T00:37:50.866Z,26.30
2023-09-06T00:40:20.866Z,25.68
2023-09-06T00:42:48.936Z,24.73
2023-09-06T00:45:20.068Z,25.13
2023-09-06T00:47:48.266Z,25.48
2023-09-06T00:50:16.395Z,25.51
2023-09-06T00:52:44.441Z,25.60
2023-09-06T00:55:12.535Z,24.89
2023-09-06T00:57:42.179Z,25.49
2023-09-06T01:00:15.668Z,24.79
2023-09-06T01:02:43.772Z,25.35
2023-09-06T01:05:11.615Z,24.83
2023-09-06T01:07:39.967Z,24.82
2023-09-06T01:10:09.533Z,24.99
2023-09-06T01:12:37.289Z,25.02
2023-09-06T01:15:07.508Z,25.20
2023-09-06T01:17:37.139Z,24.22
2023-09-06T01:20:14.282Z,24.50
2023-09-06T01:22:42.877Z,24.58
2023-09-06T01:25:13.155Z,23.75
2023-09-06T01:27:41.037Z,25.51
2023-09-06T01:30:10.755Z,24.65
2023-09-06T01:32:38.642Z,24.13
2023-09-06T01:35:10.655Z,25.07
2023-09-06T01:37:39.064Z,24.94
2023-09-06T01:40:17.970Z,25.30
2023-09-06T01:42:47.084Z,25.10
2023-09-06T01:45:18.452Z,24.35
2023-09-06T01:47:48.024Z,22.72
2023-09-06T01:50:20.980Z,25.09
2023-09-06T01:52:49.019Z,23.80
2023-09-06T01:55:17.291Z,24.90
2023-09-06T01:57:45.226Z,24.54
2023-09-06T02:00:23.970Z,23.89
2023-09-06T02:02:51.903Z,23.65
2023-09-06T02:05:19.914Z,24.16
2023-09-06T02:07:48.140Z,24.02
2023-09-06T02:10:16.100Z,22.41
2023-09-06T02:12:44.048Z,24.33
2023-09-06T02:15:15.127Z,22.68
2023-09-06T02:17:44.649Z,22.74
2023-09-06T02:20:18.414Z,23.80
2023-09-06T02:22:48.022Z,23.64
2023-09-06T02:25:16.439Z,23.32
2023-09-06T02:27:44.283Z,23.14
2023-09-06T02:30:12.574Z,24.35
2023-09-06T02:32:41.415Z,24.10
2023-09-06T02:35:11.077Z,23.98
2023-09-06T02:37:38.896Z,24.25
2023-09-06T02:40:12.959Z,24.22
2023-09-06T02:42:40.900Z,23.96
2023-09-06T02:45:10.874Z,23.79
2023-09-06T02:47:49.339Z,24.00
2023-09-06T02:50:19.146Z,24.06
2023-09-06T02:52:51.918Z,23.47
2023-09-06T02:55:19.760Z,22.47
2023-09-06T02:57:47.659Z,22.69
2023-09-06T03:00:25.929Z,22.55
2023-09-06T03:02:56.718Z,22.62
2023-09-06T03:05:28.422Z,21.92
2023-09-06T03:07:57.435Z,23.51
2023-09-06T03:10:25.324Z,23.62
2023-09-06T03:12:56.619Z,23.30
2023-09-06T03:15:25.031Z,22.79
2023-09-06T03:17:54.520Z,23.62
2023-09-06T03:20:32.757Z,22.79
2023-09-06T03:23:02.273Z,23.03
2023-09-06T03:25:30.250Z,23.06
2023-09-06T03:28:01.382Z,22.57
2023-09-06T03:30:31.292Z,21.87
2023-09-06T03:32:59.559Z,22.56
2023-09-06T03:35:28.187Z,22.67
2023-09-06T03:37:57.172Z,22.95
2023-09-06T03:40:36.122Z,22.51
2023-09-06T03:43:06.577Z,22.74
2023-09-06T03:45:35.574Z,22.40
2023-09-06T03:48:06.383Z,23.11
2023-09-06T03:50:34.512Z,22.56
2023-09-06T03:53:05.559Z,22.23
2023-09-06T03:55:38.032Z,22.03
2023-09-06T03:58:08.514Z,22.24
2023-09-06T04:00:40.486Z,23.11
2023-09-06T04:03:10.033Z,21.76
2023-09-06T04:05:38.053Z,22.48
2023-09-06T04:08:08.375Z,22.43
2023-09-06T04:10:39.570Z,22.17
2023-09-06T04:13:08.200Z,20.92
2023-09-06T04:15:36.677Z,22.33
2023-09-06T04:18:05.613Z,22.37
2023-09-06T04:20:36.369Z,21.71
2023-09-06T04:23:05.515Z,21.82
2023-09-06T04:25:34.499Z,20.99
2023-09-06T04:28:08.407Z,20.98
2023-09-06T04:30:37.486Z,22.53
2023-09-06T04:33:06.619Z,22.06
2023-09-06T04:35:35.366Z,22.52
2023-09-06T04:38:03.844Z,21.68
2023-09-06T04:40:31.744Z,22.78
2023-09-06T04:42:59.768Z,21.12
2023-09-06T04:45:29.221Z,22.35
2023-09-06T04:47:57.730Z,21.88
2023-09-06T04:50:25.772Z,21.86
2023-09-06T04:52:54.324Z,21.58
2023-09-06T04:55:22.434Z,21.53
2023-09-06T04:57:50.718Z,21.16
2023-09-06T05:00:24.848Z,20.15
2023-09-06T05:02:54.214Z,21.68
2023-09-06T05:05:22.864Z,21.78
2023-09-06T05:07:50.749Z,21.58
2023-09-06T05:10:18.806Z,21.88
2023-09-06T05:12:47.290Z,22.48
2023-09-06T05:15:15.538Z,21.03
2023-09-06T05:17:43.547Z,20.53
2023-09-06T05:20:30.196Z,21.04
2023-09-06T05:22:58.597Z,21.68
2023-09-06T05:25:26.788Z,22.41
2023-09-06T05:27:56.454Z,21.78
2023-09-06T05:30:24.277Z,22.11
2023-09-06T05:32:52.292Z,20.56
2023-09-06T05:35:20.353Z,21.89
2023-09-06T05:37:50.147Z,20.94
2023-09-06T05:40:23.647Z,20.91
2023-09-06T05:42:51.793Z,22.34
2023-09-06T05:45:20.014Z,19.67
2023-09-06T05:47:47.997Z,21.54
2023-09-06T05:50:17.516Z,20.73
2023-09-06T05:52:45.393Z,21.20
2023-09-06T05:55:14.735Z,21.05
2023-09-06T05:57:42.562Z,21.43
2023-09-06T06:00:16.800Z,22.58
2023-09-06T06:02:46.874Z,21.44
2023-09-06T06:05:16.139Z,21.40
2023-09-06T06:07:44.167Z,23.01
2023-09-06T06:10:12.065Z,22.42
2023-09-06T06:12:41.826Z,22.89
2023-09-06T06:15:13.366Z,23.46
2023-09-06T06:17:41.878Z,23.74
2023-09-06T06:20:12.293Z,25.27
2023-09-06T06:22:41.664Z,26.27
2023-09-06T06:25:11.513Z,26.33
2023-09-06T06:27:41.350Z,25.74
2023-09-06T06:30:12.289Z,28.00
2023-09-06T06:32:40.313Z,26.65
2023-09-06T06:35:10.252Z,28.98
2023-09-06T06:37:38.256Z,28.89
2023-09-06T06:40:07.562Z,27.99
2023-09-06T06:42:35.426Z,29.38
2023-09-06T06:45:05.968Z,29.90
2023-09-06T06:47:34.454Z,29.82
2023-09-06T06:50:07.035Z,30.44
2023-09-06T06:52:37.481Z,30.98
2023-09-06T06:55:06.338Z,29.85
2023-09-06T06:57:36.873Z,31.01
2023-09-06T07:00:12.767Z,32.12
2023-09-06T07:02:41.470Z,32.66
2023-09-06T07:05:10.169Z,33.36
2023-09-06T07:07:38.346Z,33.86
2023-09-06T07:10:07.465Z,33.86
2023-09-06T07:12:37.165Z,33.75
2023-09-06T07:15:07.957Z,34.20
2023-09-06T07:17:36.412Z,35.11
2023-09-06T07:20:06.355Z,34.39
2023-09-06T07:22:34.476Z,33.88
2023-09-06T07:25:04.466Z,35.98
2023-09-06T07:27:33.805Z,34.67
2023-09-06T07:30:01.691Z,36.06
2023-09-06T07:32:31.124Z,36.22
2023-09-06T07:34:58.880Z,36.77
2023-09-06T07:37:27.009Z,37.12
2023-09-06T07:39:55.206Z,37.48
2023-09-06T07:42:23.019Z,38.14
2023-09-06T07:44:51.813Z,38.03
2023-09-06T07:47:19.714Z,39.20
2023-09-06T07:49:48.949Z,37.92
2023-09-06T07:52:16.708Z,39.63
2023-09-06T07:54:44.519Z,40.04
2023-09-06T07:57:12.285Z,39.84
2023-09-06T07:59:41.188Z,41.42
2023-09-06T08:02:09.256Z,41.43
2023-09-06T08:04:37.147Z,41.58
2023-09-06T08:07:06.682Z,42.32
2023-09-06T08:09:34.802Z,42.59
2023-09-06T08:12:04.335Z,41.45
2023-09-06T08:14:32.559Z,41.21
2023-09-06T08:17:00.609Z,42.11
2023-09-06T08:19:28.632Z,43.24
2023-09-06T08:21:56.761Z,43.25
2023-09-06T08:24:26.210Z,44.22
2023-09-06T08:26:54.125Z,43.96
2023-09-06T08:29:22.126Z,43.33
2023-09-06T08:31:49.983Z,44.89
2023-09-06T08:34:17.955Z,44.93
2023-09-06T08:36:45.818Z,45.54
2023-09-06T08:39:13.592Z,45.22
2023-09-06T08:41:42.984Z,45.07
2023-09-06T08:44:12.323Z,45.23
2023-09-06T08:46:42.639Z,45.44
2023-09-06T08:49:10.891Z,45.60
2023-09-06T08:51:39.341Z,46.18
2023-09-06T08:54:07.554Z,46.39
2023-09-06T08:56:35.830Z,46.25
2023-09-06T08:59:06.806Z,46.64
2023-09-06T09:01:39.034Z,44.62
2023-09-06T09:04:08.493Z,46.06
2023-09-06T09:06:36.647Z,45.79
2023-09-06T09:09:17.539Z,45.25
2023-09-06T09:11:46.117Z,44.36
2023-09-06T09:14:22.435Z,44.13
2023-09-06T09:16:55.758Z,45.77
2023-09-06T09:19:23.986Z,45.14
2023-09-06T09:21:52.584Z,46.43
2023-09-06T09:24:27.795Z,45.93
2023-09-06T09:26:57.871Z,45.56
2023-09-06T09:29:27.250Z,46.28
2023-09-06T09:31:55.588Z,46.15
2023-09-06T09:34:23.727Z,47.18
2023-09-06T09:36:52.322Z,48.01
2023-09-06T09:39:20.430Z,47.86
2023-09-06T09:41:58.963Z,49.12
2023-09-06T09:44:29.595Z,48.09
2023-09-06T09:46:58.749Z,48.91
2023-09-06T09:49:27.603Z,48.33
2023-09-06T09:51:55.817Z,48.96
2023-09-06T09:54:23.900Z,49.98
2023-09-06T09:56:57.803Z,49.29
2023-09-06T09:59:25.993Z,50.73
2023-09-06T10:01:56.044Z,51.53
2023-09-06T10:04:31.515Z,52.04
2023-09-06T10:07:00.145Z,50.80
2023-09-06T10:09:30.950Z,51.50
2023-09-06T10:11:59.011Z,52.72
2023-09-06T10:14:27.367Z,52.19
2023-09-06T10:16:57.385Z,52.29
2023-09-06T10:19:25.472Z,53.47
2023-09-06T10:21:53.460Z,53.33
2023-09-06T10:24:21.568Z,52.97
2023-09-06T10:26:49.784Z,53.15
2023-09-06T10:29:21.745Z,52.23
2023-09-06T10:31:50.028Z,53.96
2023-09-06T10:34:19.404Z,53.73
2023-09-06T10:36:52.650Z,53.17
2023-09-06T10:39:22.546Z,53.53
2023-09-06T10:42:30.274Z,53.49
2023-09-06T10:45:14.924Z,53.07
2023-09-06T10:47:43.793Z,52.82
2023-09-06T10:50:21.074Z,53.62
2023-09-06T10:52:51.783Z,52.96
2023-09-06T10:55:21.935Z,52.44
2023-09-06T10:57:53.830Z,52.13
2023-09-06T11:00:23.231Z,52.74
2023-09-06T11:03:20.457Z,54.27
2023-09-06T11:05:53.918Z,53.64
2023-09-06T11:08:32.417Z,55.09
2023-09-06T11:11:01.731Z,54.96
2023-09-06T11:13:31.888Z,55.12
2023-09-06T11:15:59.723Z,55.64
2023-09-06T11:18:28.757Z,54.45
2023-09-06T11:21:00.311Z,54.51
2023-09-06T11:23:28.371Z,54.61
2023-09-06T11:25:58.590Z,55.27
2023-09-06T11:28:29.844Z,54.90
2023-09-06T11:31:00.000Z,54.32
2023-09-06T11:33:31.114Z,55.97
2023-09-06T11:36:05.096Z,56.96
2023-09-06T11:38:35.844Z,57.30
2023-09-06T11:41:04.994Z,56.25
2023-09-06T11:43:33.182Z,54.40
2023-09-06T11:46:05.134Z,56.11
2023-09-06T11:48:35.411Z,55.42
2023-09-06T11:51:09.662Z,54.94
2023-09-06T11:53:41.749Z,54.23
2023-09-06T11:56:12.365Z,53.31
2023-09-06T11:58:46.825Z,51.69
2023-09-06T12:01:21.125Z,50.34
2023-09-06T12:03:49.584Z,48.77
2023-09-06T12:06:19.000Z,47.14
2023-09-06T12:08:46.867Z,45.83
2023-09-06T12:11:21.618Z,44.32
2023-09-06T12:13:49.791Z,42.88
2023-09-06T12:16:18.128Z,41.34
2023-09-06T12:18:46.762Z,41.31
2023-09-06T12:21:16.430Z,41.32
2023-09-06T12:23:47.217Z,40.67
2023-09-06T12:26:17.999Z,39.16
2023-09-06T12:28:45.949Z,38.08
2023-09-06T12:31:17.836Z,37.60
2023-09-06T12:33:47.946Z,38.68
2023-09-06T12:36:18.326Z,37.92
2023-09-06T12:38:49.909Z,37.53
2023-09-06T12:41:17.773Z,37.06
2023-09-06T12:43:45.594Z,36.86
2023-09-06T12:46:13.913Z,36.63
2023-09-06T12:48:44.300Z,35.68
2023-09-06T12:51:12.762Z,36.04
2023-09-06T12:53:40.607Z,36.18
2023-09-06T12:56:14.671Z,35.52
2023-09-06T12:58:44.587Z,35.66
2023-09-06T13:01:13.653Z,35.18
2023-09-06T13:03:44.205Z,35.65
2023-09-06T13:06:12.051Z,35.30
2023-09-06T13:08:42.034Z,34.96
2023-09-06T13:11:13.961Z,34.79
2023-09-06T13:13:42.542Z,35.43
2023-09-06T13:16:10.693Z,35.19
2023-09-06T13:18:39.800Z,35.81
2023-09-06T13:21:08.192Z,35.68
2023-09-06T13:23:36.300Z,33.76
2023-09-06T13:26:04.189Z,34.33
2023-09-06T13:28:38.188Z,34.85
2023-09-06T13:31:08.296Z,35.42
2023-09-06T13:33:36.796Z,35.40
2023-09-06T13:36:07.091Z,34.12
2023-09-06T13:38:35.312Z,35.99
2023-09-06T13:41:03.181Z,35.20
2023-09-06T13:43:31.394Z,35.17
2023-09-06T13:46:02.034Z,35.24
2023-09-06T13:48:30.322Z,34.97
2023-09-06T13:50:59.509Z,35.93
2023-09-06T13:53:27.740Z,35.44
2023-09-06T13:55:56.919Z,34.01
2023-09-06T13:58:25.019Z,35.40
2023-09-06T14:00:56.884Z,35.39
2023-09-06T14:03:26.379Z,34.49
2023-09-06T14:05:54.497Z,35.57
2023-09-06T14:08:23.067Z,35.42
2023-09-06T14:10:52.982Z,34.91
2023-09-06T14:13:21.898Z,33.93
2023-09-06T14:15:49.865Z,35.79
2023-09-06T14:18:19.702Z,35.27
2023-09-06T14:20:48.970Z,34.42
2023-09-06T14:23:17.279Z,35.51
2023-09-06T14:25:45.230Z,34.93
2023-09-06T14:28:13.093Z,34.70
2023-09-06T14:30:41.388Z,34.65
2023-09-06T14:33:09.864Z,34.88
2023-09-06T14:35:41.135Z,34.78
2023-09-06T14:38:10.393Z,35.17
2023-09-06T14:40:39.544Z,35.10
2023-09-06T14:43:07.831Z,35.03
2023-09-06T14:45:36.130Z,35.34
2023-09-06T14:48:04.721Z,34.18
2023-09-06T14:50:32.863Z,35.34
2023-09-06T14:53:00.694Z,34.54
2023-09-06T14:55:31.574Z,35.16
2023-09-06T14:57:59.680Z,34.58
2023-09-06T15:00:27.917Z,35.65
2023-09-06T15:02:55.774Z,34.26
2023-09-06T15:05:23.755Z,34.30
2023-09-06T15:07:52.377Z,34.72
2023-09-06T15:10:20.200Z,34.42
2023-09-06T15:12:49.520Z,35.20
2023-09-06T15:15:18.845Z,34.24
2023-09-06T15:17:47.507Z,35.59
2023-09-06T15:20:15.542Z,34.84
2023-09-06T15:22:43.491Z,34.45
2023-09-06T15:25:12.614Z,34.65
2023-09-06T15:27:40.814Z,34.16
2023-09-06T15:30:11.028Z,35.41
2023-09-06T15:32:39.146Z,34.39
2023-09-06T15:35:08.811Z,34.94
2023-09-06T15:37:36.758Z,34.45
2023-09-06T15:40:05.883Z,34.75
2023-09-06T15:42:33.916Z,35.34
2023-09-06T15:45:01.751Z,34.30
2023-09-06T15:47:31.018Z,35.37
2023-09-06T15:49:58.831Z,33.89
2023-09-06T15:52:27.331Z,34.21
2023-09-06T15:54:55.190Z,33.64
2023-09-06T15:57:23.186Z,34.52
2023-09-06T15:59:51.153Z,34.34
2023-09-06T16:02:19.199Z,34.35
2023-09-06T16:04:48.832Z,34.72
2023-09-06T16:07:16.768Z,33.43
2023-09-06T16:09:45.532Z,34.20
2023-09-06T16:12:13.354Z,33.54
2023-09-06T16:14:42.047Z,34.59
2023-09-06T16:17:09.953Z,33.61
2023-09-06T16:19:37.773Z,33.25
2023-09-06T16:22:07.160Z,34.26
2023-09-06T16:24:36.650Z,34.10
2023-09-06T16:27:04.786Z,33.59
2023-09-06T16:29:32.666Z,33.87
2023-09-06T16:32:00.364Z,32.44
2023-09-06T16:34:28.378Z,33.91
2023-09-06T16:36:56.171Z,33.25
2023-09-06T16:39:25.451Z,34.32
2023-09-06T16:41:54.533Z,34.19
2023-09-06T16:44:23.587Z,32.61
2023-09-06T16:46:51.851Z,33.58
2023-09-06T16:49:19.668Z,33.88
2023-09-06T16:51:47.733Z,33.19
2023-09-06T16:54:15.868Z,34.39
2023-09-06T16:56:45.200Z,33.87
2023-09-06T16:59:13.148Z,32.71
2023-09-06T17:01:42.555Z,32.92
2023-09-06T17:04:10.630Z,33.18
2023-09-06T17:06:38.434Z,33.44
2023-09-06T17:09:09.838Z,32.90
2023-09-06T17:11:42.425Z,33.12
2023-09-06T17:14:12.149Z,31.88
2023-09-06T17:16:42.552Z,32.85
2023-09-06T17:19:11.281Z,33.26
2023-09-06T17:21:40.218Z,33.14
2023-09-06T17:24:09.564Z,33.38
2023-09-06T17:26:38.132Z,32.77
2023-09-06T17:29:07.624Z,32.31
2023-09-06T17:31:37.478Z,32.65
2023-09-06T17:34:06.952Z,32.35
2023-09-06T17:36:37.427Z,31.03
2023-09-06T17:39:09.327Z,30.55
2023-09-06T17:41:38.828Z,31.29
2023-09-06T17:44:08.729Z,31.93
2023-09-06T17:46:38.060Z,31.00
2023-09-06T17:49:09.942Z,32.21
2023-09-06T17:51:39.995Z,31.26
2023-09-06T17:54:08.061Z,30.77
2023-09-06T17:56:37.540Z,31.56
2023-09-06T17:59:06.136Z,30.93
2023-09-06T18:01:36.990Z,30.88
2023-09-06T18:04:11.320Z,31.23
2023-09-06T18:06:39.669Z,29.91
2023-09-06T18:09:10.245Z,31.48
2023-09-06T18:11:39.094Z,30.17
2023-09-06T18:14:09.230Z,30.67
2023-09-06T18:16:43.169Z,30.57
2023-09-06T18:19:14.075Z,29.52
2023-09-06T18:21:42.329Z,30.90
2023-09-06T18:24:15.154Z,29.95
2023-09-06T18:26:54.221Z,29.34
2023-09-06T18:29:29.701Z,30.52
2023-09-06T18:31:57.462Z,29.79
2023-09-06T18:34:26.806Z,29.32
2023-09-06T18:36:54.749Z,29.98
2023-09-06T18:39:23.885Z,27.74
2023-09-06T18:41:52.337Z,29.38
2023-09-06T18:44:20.133Z,28.68
2023-09-06T18:46:48.080Z,27.92
2023-09-06T18:49:15.999Z,27.80
2023-09-06T18:51:45.179Z,28.30
2023-09-06T18:54:13.020Z,27.11
2023-09-06T18:56:40.829Z,28.63
2023-09-06T18:59:10.029Z,28.98
2023-09-06T19:01:38.040Z,28.69
2023-09-06T19:04:06.235Z,27.63
2023-09-06T19:06:35.639Z,27.35
2023-09-06T19:09:09.325Z,27.83
2023-09-06T19:11:37.671Z,27.53
2023-09-06T19:14:05.876Z,27.87
2023-09-06T19:16:34.084Z,28.55
2023-09-06T19:19:02.019Z,28.13
2023-09-06T19:21:29.820Z,28.74
2023-09-06T19:23:57.525Z,28.09
2023-09-06T19:26:26.689Z,27.01
2023-09-06T19:28:54.497Z,27.64
2023-09-06T19:31:22.330Z,27.75
2023-09-06T19:33:50.096Z,27.80
2023-09-06T19:36:17.984Z,26.60
2023-09-06T19:38:45.911Z,27.65
2023-09-06T19:41:13.846Z,26.45
2023-09-06T19:43:43.317Z,27.30
2023-09-06T19:46:11.317Z,26.61
2023-09-06T19:48:50.585Z,26.50
2023-09-06T19:51:22.845Z,25.46
2023-09-06T19:53:50.893Z,26.93
2023-09-06T19:56:19.043Z,26.92
2023-09-06T19:58:48.761Z,26.50
2023-09-06T20:01:17.703Z,27.05
2023-09-06T20:03:47.270Z,27.05
2023-09-06T20:06:15.308Z,26.96
2023-09-06T20:08:43.907Z,26.92
2023-09-06T20:11:12.678Z,26.87
2023-09-06T20:13:40.888Z,25.61
2023-09-06T20:16:10.401Z,26.67
2023-09-06T20:18:38.508Z,26.77
2023-09-06T20:21:07.199Z,25.07
2023-09-06T20:23:37.609Z,26.59
2023-09-06T20:26:05.627Z,27.22
2023-09-06T20:28:38.086Z,26.61
2023-09-06T20:31:09.154Z,26.55
2023-09-06T20:33:39.160Z,26.84
2023-09-06T20:36:07.552Z,25.84
2023-09-06T20:38:37.686Z,26.35
2023-09-06T20:41:06.872Z,24.96
2023-09-06T20:43:36.779Z,26.82
2023-09-06T20:46:04.979Z,26.79
2023-09-06T20:48:33.619Z,25.07
2023-09-06T20:51:06.437Z,25.07
2023-09-06T20:53:34.588Z,26.65
2023-09-06T20:56:02.991Z,26.61
2023-09-06T20:58:31.491Z,25.96
2023-09-06T21:00:59.958Z,26.49
2023-09-06T21:03:28.326Z,25.78
2023-09-06T21:06:00.379Z,25.14
2023-09-06T21:08:30.468Z,25.75
2023-09-06T21:10:58.917Z,26.24
2023-09-06T21:13:27.356Z,25.68
2023-09-06T21:15:57.334Z,25.52
2023-09-06T21:18:26.010Z,25.16
2023-09-06T21:20:55.630Z,25.53
2023-09-06T21:23:24.237Z,25.50
2023-09-06T21:25:56.238Z,24.39
2023-09-06T21:28:28.197Z,25.38
2023-09-06T21:30:56.680Z,24.89
2023-09-06T21:33:24.882Z,23.66
2023-09-06T21:35:53.344Z,25.18
2023-09-06T21:38:21.645Z,24.62
2023-09-06T21:40:49.988Z,25.07
2023-09-06T21:43:20.182Z,25.42
2023-09-06T21:45:48.719Z,24.93
2023-09-06T21:48:17.469Z,25.24
2023-09-06T21:50:47.934Z,24.37
2023-09-06T21:53:16.009Z,24.84
2023-09-06T21:55:44.300Z,24.73
2023-09-06T21:58:12.623Z,24.86
2023-09-06T22:00:42.178Z,25.34
2023-09-06T22:03:10.272Z,22.85
2023-09-06T22:05:38.292Z,22.81
2023-09-06T22:08:06.660Z,23.07
2023-09-06T22:10:34.954Z,24.23
2023-09-06T22:13:03.971Z,23.39
2023-09-06T22:15:31.944Z,24.74
2023-09-06T22:18:01.516Z,24.17
2023-09-06T22:20:31.521Z,22.95
2023-09-06T22:22:59.747Z,24.10
2023-09-06T22:25:27.840Z,24.36
2023-09-06T22:27:58.657Z,24.33
2023-09-06T22:30:27.275Z,23.77
2023-09-06T22:32:55.424Z,23.07
2023-09-06T22:35:24.942Z,23.14
2023-09-06T22:37:54.320Z,24.20
2023-09-06T22:40:22.431Z,24.14
2023-09-06T22:42:50.761Z,23.94
2023-09-06T22:45:19.212Z,23.43
2023-09-06T22:47:47.255Z,24.12
2023-09-06T22:50:15.281Z,24.10
2023-09-06T22:52:44.638Z,23.20
2023-09-06T22:55:12.727Z,23.79
2023-09-06T22:57:40.739Z,23.43
2023-09-06T23:00:09.730Z,23.40
2023-09-06T23:02:37.628Z,23.71
2023-09-06T23:05:06.153Z,23.92
2023-09-06T23:07:34.191Z,22.40
2023-09-06T23:10:04.758Z,22.18
2023-09-06T23:12:33.778Z,23.48
2023-09-06T23:15:02.471Z,24.21
2023-09-06T23:17:37.558Z,23.62
2023-09-06T23:20:12.615Z,23.25
2023-09-06T23:22:45.649Z,23.20
2023-09-06T23:25:15.934Z,22.47
2023-09-06T23:27:46.037Z,22.91
2023-09-06T23:30:18.186Z,22.53
2023-09-06T23:32:48.573Z,23.67
2023-09-06T23:35:17.016Z,22.47
2023-09-06T23:37:47.518Z,23.25
2023-09-06T23:40:25.947Z,23.14
2023-09-06T23:42:54.749Z,21.27
2023-09-06T23:45:23.907Z,23.02
2023-09-06T23:47:53.859Z,22.69
2023-09-06T23:50:21.855Z,23.01
2023-09-06T23:55:25.713Z,23.46
2023-09-06T23:57:53.581Z,23.44
